Time;durP1;ratioP1;P1;durP2;ratioP2;P2;SDS_P1;SDS_P2;PMS_P1;PMS_P2;Temp;Humidity;BMP_temperature;BMP_pressure;BME280_temperature;BME280_humidity;BME280_pressure;Samples;Min_cycle;Max_cycle;Signal;HPM_P1;HPM_P2
2023/08/16 00:01:10;;;;;;;6.82;4.95;;;;;;;;;;4996716;28;20202;-52
2023/08/16 00:03:37;;;;;;;5.75;4.82;;;;;;;;;;4996761;28;20702;-54
2023/08/16 00:06:12;;;;;;;7.97;4.97;;;;;;;;;;4997292;28;20202;-53
2023/08/16 00:08:39;;;;;;;7.35;4.78;;;;;;;;;;4996904;28;20209;-57
2023/08/16 00:11:07;;;;;;;9.95;4.63;;;;;;;;;;4996544;28;20261;-50
2023/08/16 00:13:34;;;;;;;7.93;5.38;;;;;;;;;;4996873;28;20296;-50
2023/08/16 00:16:02;;;;;;;6.50;4.65;;;;;;;;;;4996822;28;20214;-50
2023/08/16 00:18:29;;;;;;;6.38;4.90;;;;;;;;;;4996550;28;20229;-54
2023/08/16 00:21:00;;;;;;;6.50;4.72;;;;;;;;;;4996594;28;20205;-53
2023/08/16 00:23:28;;;;;;;7.57;5.00;;;;;;;;;;4996515;28;20206;-52
2023/08/16 00:25:56;;;;;;;8.75;4.90;;;;;;;;;;4996642;28;20210;-54
2023/08/16 00:28:24;;;;;;;10.38;4.85;;;;;;;;;;4996320;28;20199;-51
2023/08/16 00:30:54;;;;;;;7.32;5.50;;;;;;;;;;4995227;28;20206;-50
2023/08/16 00:33:21;;;;;;;8.57;5.60;;;;;;;;;;4996812;28;20233;-52
2023/08/16 00:35:51;;;;;;;8.05;5.43;;;;;;;;;;4995036;28;20268;-52
2023/08/16 00:38:18;;;;;;;10.52;5.60;;;;;;;;;;4995321;28;20229;-52
2023/08/16 00:40:52;;;;;;;10.23;4.93;;;;;;;;;;4994111;28;20260;-50
2023/08/16 00:43:20;;;;;;;9.45;5.10;;;;;;;;;;4994992;28;20212;-50
2023/08/16 00:45:48;;;;;;;6.90;5.00;;;;;;;;;;4996341;28;20272;-53
2023/08/16 00:48:16;;;;;;;8.35;5.30;;;;;;;;;;4978697;28;20216;-53
2023/08/16 00:50:45;;;;;;;11.13;4.78;;;;;;;;;;4995858;28;20738;-53
2023/08/16 00:53:14;;;;;;;10.38;5.15;;;;;;;;;;4996072;28;20253;-53
2023/08/16 00:55:41;;;;;;;8.85;5.38;;;;;;;;;;4994955;28;20201;-54
2023/08/16 00:58:08;;;;;;;10.60;4.97;;;;;;;;;;4994862;28;20202;-57
2023/08/16 01:00:36;;;;;;;9.85;5.55;;;;;;;;;;4995990;28;20217;-50
2023/08/16 01:03:03;;;;;;;6.18;5.30;;;;;;;;;;4995712;28;20230;-50
2023/08/16 01:05:31;;;;;;;13.82;5.25;;;;;;;;;;4996159;28;20655;-52
2023/08/16 01:07:59;;;;;;;11.57;5.05;;;;;;;;;;4994674;28;20217;-51
2023/08/16 01:11:11;;;;;;;9.43;5.28;;;;;;;;;;4995742;28;20210;-53
2023/08/16 01:13:41;;;;;;;7.57;5.05;;;;;;;;;;4954602;29;20747;-51
2023/08/16 01:16:09;;;;;;;7.00;4.85;;;;;;;;;;4954719;29;20207;-51
2023/08/16 01:18:37;;;;;;;12.18;5.68;;;;;;;;;;4954639;29;20739;-53
2023/08/16 01:21:06;;;;;;;9.80;5.32;;;;;;;;;;4954433;29;20208;-53
2023/08/16 01:23:53;;;;;;;9.57;4.97;;;;;;;;;;4954677;29;20230;-51
2023/08/16 01:26:26;;;;;;;10.30;6.03;;;;;;;;;;4954547;29;20207;-52
2023/08/16 01:28:54;;;;;;;7.85;5.70;;;;;;;;;;4938511;29;20207;-56
2023/08/16 01:31:22;;;;;;;10.50;5.47;;;;;;;;;;4922907;29;20215;-54
2023/08/16 01:33:49;;;;;;;8.55;5.47;;;;;;;;;;4954372;29;20227;-54
2023/08/16 01:36:16;;;;;;;11.10;5.65;;;;;;;;;;4938392;29;20661;-52
2023/08/16 01:38:43;;;;;;;11.43;5.60;;;;;;;;;;4954231;29;20266;-54
2023/08/16 01:41:17;;;;;;;7.65;5.43;;;;;;;;;;4938269;29;20222;-50
2023/08/16 01:43:44;;;;;;;7.95;5.85;;;;;;;;;;4954360;29;20207;-55
2023/08/16 01:46:13;;;;;;;7.70;5.55;;;;;;;;;;4938283;29;20206;-56
2023/08/16 01:48:40;;;;;;;7.03;5.57;;;;;;;;;;4954087;28;20211;-55
2023/08/16 01:51:08;;;;;;;9.32;5.85;;;;;;;;;;4993631;28;20234;-53
2023/08/16 01:53:36;;;;;;;9.20;6.40;;;;;;;;;;4994915;28;20260;-54
2023/08/16 01:56:03;;;;;;;10.25;5.50;;;;;;;;;;4977809;28;20217;-53
2023/08/16 01:58:31;;;;;;;11.40;6.75;;;;;;;;;;4977771;28;20209;-52
2023/08/16 02:00:58;;;;;;;10.13;6.45;;;;;;;;;;4977574;28;20214;-54
2023/08/16 02:03:25;;;;;;;10.25;6.20;;;;;;;;;;4993490;28;20216;-53
2023/08/16 02:05:53;;;;;;;8.25;6.22;;;;;;;;;;4993409;28;20553;-55
2023/08/16 02:08:20;;;;;;;11.85;6.35;;;;;;;;;;4993561;28;20206;-54
2023/08/16 02:10:47;;;;;;;13.20;5.78;;;;;;;;;;4994565;28;20674;-50
2023/08/16 02:13:15;;;;;;;8.85;5.47;;;;;;;;;;4993313;28;20324;-53
2023/08/16 02:15:42;;;;;;;9.23;5.60;;;;;;;;;;4994659;28;20198;-56
2023/08/16 02:18:10;;;;;;;11.95;6.25;;;;;;;;;;4993198;28;20241;-53
2023/08/16 02:20:39;;;;;;;11.27;6.00;;;;;;;;;;4993158;28;20210;-54
2023/08/16 02:23:07;;;;;;;13.13;6.70;;;;;;;;;;4994209;28;20580;-55
2023/08/16 02:25:35;;;;;;;9.90;6.93;;;;;;;;;;4974875;28;20660;-54
2023/08/16 02:28:02;;;;;;;10.32;6.85;;;;;;;;;;4973898;28;20294;-50
2023/08/16 02:30:29;;;;;;;12.63;6.55;;;;;;;;;;4974762;28;20655;-51
2023/08/16 02:32:56;;;;;;;16.27;6.47;;;;;;;;;;4973480;28;20227;-50
2023/08/16 02:35:24;;;;;;;9.60;6.18;;;;;;;;;;4975203;28;20214;-51
2023/08/16 02:37:51;;;;;;;10.77;6.07;;;;;;;;;;4974874;28;20229;-51
2023/08/16 02:40:19;;;;;;;9.98;6.30;;;;;;;;;;4974477;28;20207;-53
2023/08/16 02:42:49;;;;;;;12.05;6.68;;;;;;;;;;4974856;28;20210;-53
2023/08/16 02:45:17;;;;;;;13.20;6.05;;;;;;;;;;4973237;28;20202;-50
2023/08/16 02:47:45;;;;;;;13.52;6.38;;;;;;;;;;4973428;28;20293;-50
2023/08/16 02:50:13;;;;;;;10.40;6.28;;;;;;;;;;4973377;28;20266;-50
2023/08/16 02:52:40;;;;;;;8.45;6.50;;;;;;;;;;4974523;28;20574;-52
2023/08/16 02:55:08;;;;;;;8.35;5.95;;;;;;;;;;4973094;28;20652;-50
2023/08/16 02:57:35;;;;;;;15.48;6.38;;;;;;;;;;4974193;28;20261;-52
2023/08/16 03:00:03;;;;;;;13.80;6.38;;;;;;;;;;4974168;28;20206;-54
2023/08/16 03:02:32;;;;;;;9.48;6.22;;;;;;;;;;4973278;28;20619;-53
2023/08/16 03:05:00;;;;;;;16.73;5.70;;;;;;;;;;4977630;28;20730;-50
2023/08/16 03:07:27;;;;;;;13.45;7.13;;;;;;;;;;4977192;28;20722;-51
2023/08/16 03:09:54;;;;;;;7.72;6.38;;;;;;;;;;4978022;28;20202;-51
2023/08/16 03:12:21;;;;;;;13.73;6.50;;;;;;;;;;4976846;28;20242;-49
2023/08/16 03:14:48;;;;;;;15.65;7.13;;;;;;;;;;4977995;28;20257;-49
2023/08/16 03:17:15;;;;;;;11.70;6.93;;;;;;;;;;4977006;28;20210;-49
2023/08/16 03:19:42;;;;;;;7.45;6.07;;;;;;;;;;4976916;28;20206;-51
2023/08/16 03:22:09;;;;;;;11.55;6.80;;;;;;;;;;4977059;28;20202;-51
2023/08/16 03:24:37;;;;;;;14.32;6.53;;;;;;;;;;4976677;28;20203;-51
2023/08/16 03:27:04;;;;;;;10.93;6.63;;;;;;;;;;4976637;28;20210;-52
2023/08/16 03:29:32;;;;;;;15.40;7.13;;;;;;;;;;4977744;28;20675;-52
2023/08/16 03:32:00;;;;;;;9.43;6.72;;;;;;;;;;4976491;28;20683;-52
2023/08/16 03:34:30;;;;;;;9.48;6.90;;;;;;;;;;4976527;28;20229;-50
2023/08/16 03:36:57;;;;;;;9.82;6.40;;;;;;;;;;4977585;28;20660;-50
2023/08/16 03:39:25;;;;;;;10.75;6.72;;;;;;;;;;4976339;28;20578;-50
2023/08/16 03:41:52;;;;;;;14.70;6.90;;;;;;;;;;4976639;28;20211;-54
2023/08/16 03:44:19;;;;;;;13.88;7.00;;;;;;;;;;4976816;28;20195;-51
2023/08/16 03:46:47;;;;;;;10.68;6.05;;;;;;;;;;4977692;28;20331;-49
2023/08/16 03:49:14;;;;;;;14.27;6.32;;;;;;;;;;4975305;28;20211;-52
2023/08/16 03:51:41;;;;;;;10.48;7.40;;;;;;;;;;4976805;28;20206;-52
2023/08/16 03:54:08;;;;;;;16.00;7.07;;;;;;;;;;4976490;28;20606;-54
2023/08/16 03:56:36;;;;;;;24.33;7.32;;;;;;;;;;4976026;28;20202;-53
2023/08/16 03:59:03;;;;;;;15.35;6.78;;;;;;;;;;4978028;28;20660;-53
2023/08/16 04:01:30;;;;;;;12.50;7.05;;;;;;;;;;4975665;28;20205;-52
2023/08/16 04:03:58;;;;;;;13.63;7.32;;;;;;;;;;4962680;28;20203;-49
2023/08/16 04:06:25;;;;;;;15.35;6.72;;;;;;;;;;4972119;28;20258;-54
2023/08/16 04:08:52;;;;;;;19.58;7.25;;;;;;;;;;4958079;28;20194;-50
2023/08/16 04:11:19;;;;;;;13.48;7.10;;;;;;;;;;4977380;28;20239;-50
2023/08/16 04:13:47;;;;;;;16.38;7.38;;;;;;;;;;4980084;28;20269;-50
2023/08/16 04:16:15;;;;;;;9.70;7.10;;;;;;;;;;4996001;28;20730;-55
2023/08/16 04:18:42;;;;;;;17.05;7.55;;;;;;;;;;4996157;28;20221;-56
2023/08/16 04:21:09;;;;;;;13.18;6.63;;;;;;;;;;4994813;28;20249;-50
2023/08/16 04:23:37;;;;;;;15.45;6.80;;;;;;;;;;4994645;28;20285;-49
2023/08/16 04:26:04;;;;;;;11.63;6.85;;;;;;;;;;4983873;28;20623;-52
2023/08/16 04:28:33;;;;;;;11.68;6.38;;;;;;;;;;4974979;28;20289;-50
2023/08/16 04:31:00;;;;;;;11.27;6.50;;;;;;;;;;4975167;28;20222;-50
2023/08/16 04:33:28;;;;;;;16.65;7.10;;;;;;;;;;4974960;28;20593;-51
2023/08/16 04:35:56;;;;;;;17.58;7.28;;;;;;;;;;4975153;28;20227;-51
2023/08/16 04:38:23;;;;;;;14.15;6.80;;;;;;;;;;4975067;28;20254;-50
2023/08/16 04:40:51;;;;;;;13.20;7.30;;;;;;;;;;4975099;28;20590;-55
2023/08/16 04:43:19;;;;;;;9.18;6.55;;;;;;;;;;4974829;28;20625;-51
2023/08/16 04:45:47;;;;;;;9.48;6.43;;;;;;;;;;4975040;28;20757;-52
2023/08/16 04:48:15;;;;;;;10.93;6.95;;;;;;;;;;4974787;28;20257;-51
2023/08/16 04:50:44;;;;;;;10.25;6.38;;;;;;;;;;4975137;28;20233;-56
2023/08/16 04:53:12;;;;;;;8.23;6.15;;;;;;;;;;4974451;28;20250;-53
2023/08/16 04:55:41;;;;;;;10.05;5.47;;;;;;;;;;4975028;28;20219;-50
2023/08/16 04:58:09;;;;;;;12.40;6.53;;;;;;;;;;4974143;28;20235;-54
2023/08/16 05:00:41;;;;;;;11.38;6.68;;;;;;;;;;4974665;28;20759;-52
2023/08/16 05:03:10;;;;;;;9.48;6.55;;;;;;;;;;4974296;28;20234;-50
2023/08/16 05:05:38;;;;;;;10.73;6.30;;;;;;;;;;4973978;28;20655;-50
2023/08/16 05:08:05;;;;;;;10.65;6.00;;;;;;;;;;4975571;28;20569;-52
2023/08/16 05:10:32;;;;;;;7.70;5.68;;;;;;;;;;4973311;28;20223;-50
2023/08/16 05:13:01;;;;;;;7.90;5.43;;;;;;;;;;4973148;28;20601;-51
2023/08/16 05:15:28;;;;;;;8.40;5.57;;;;;;;;;;4974336;28;20273;-51
2023/08/16 05:17:56;;;;;;;8.85;6.22;;;;;;;;;;4974073;28;20235;-52
2023/08/16 05:20:23;;;;;;;12.60;6.32;;;;;;;;;;4973261;28;20766;-50
2023/08/16 05:22:50;;;;;;;15.40;6.47;;;;;;;;;;4970635;28;20680;-54
2023/08/16 05:25:17;;;;;;;9.20;5.55;;;;;;;;;;4971263;28;20242;-51
2023/08/16 05:27:45;;;;;;;16.38;5.45;;;;;;;;;;4975253;28;20199;-50
2023/08/16 05:30:11;;;;;;;8.52;5.57;;;;;;;;;;4976171;28;20213;-53
2023/08/16 05:32:39;;;;;;;9.43;6.03;;;;;;;;;;4975976;28;20599;-52
2023/08/16 05:35:06;;;;;;;13.32;5.40;;;;;;;;;;4975980;28;20209;-54
2023/08/16 05:37:34;;;;;;;13.45;5.40;;;;;;;;;;4975999;28;20198;-52
2023/08/16 05:40:01;;;;;;;12.70;5.50;;;;;;;;;;4975520;28;20682;-53
2023/08/16 05:42:30;;;;;;;8.30;5.45;;;;;;;;;;4975480;28;20203;-54
2023/08/16 05:44:57;;;;;;;9.60;4.90;;;;;;;;;;4975726;28;20237;-51
2023/08/16 05:47:24;;;;;;;10.77;4.78;;;;;;;;;;4975767;28;20210;-51
2023/08/16 05:49:52;;;;;;;7.65;5.50;;;;;;;;;;4975489;28;20207;-52
2023/08/16 05:52:19;;;;;;;8.60;5.00;;;;;;;;;;4975378;28;20675;-55
2023/08/16 05:54:46;;;;;;;10.55;5.03;;;;;;;;;;4974521;28;20309;-57
2023/08/16 05:57:13;;;;;;;7.70;5.15;;;;;;;;;;4974988;28;20203;-54
2023/08/16 05:59:40;;;;;;;10.05;5.28;;;;;;;;;;4975247;28;20228;-51
2023/08/16 06:02:08;;;;;;;8.65;4.82;;;;;;;;;;4975088;28;20210;-54
2023/08/16 06:04:35;;;;;;;12.05;5.53;;;;;;;;;;4975190;28;20202;-56
2023/08/16 06:07:03;;;;;;;9.80;5.25;;;;;;;;;;4974723;28;20719;-52
2023/08/16 06:09:31;;;;;;;9.90;5.07;;;;;;;;;;4974175;28;20207;-55
2023/08/16 06:12:00;;;;;;;8.85;5.30;;;;;;;;;;4975081;28;20257;-53
2023/08/16 06:14:27;;;;;;;6.63;4.22;;;;;;;;;;4974718;28;20234;-55
2023/08/16 06:16:54;;;;;;;12.07;6.10;;;;;;;;;;4974804;28;20213;-57
2023/08/16 06:19:21;;;;;;;7.18;4.60;;;;;;;;;;4974802;28;20206;-51
2023/08/16 06:21:49;;;;;;;9.88;4.82;;;;;;;;;;4975076;28;20233;-57
2023/08/16 06:24:16;;;;;;;9.88;4.90;;;;;;;;;;4974341;28;20207;-53
2023/08/16 06:26:43;;;;;;;9.60;4.60;;;;;;;;;;4974661;28;20213;-55
2023/08/16 06:29:10;;;;;;;10.85;4.63;;;;;;;;;;4974851;28;20203;-57
2023/08/16 06:31:37;;;;;;;6.25;4.50;;;;;;;;;;4974674;28;20203;-55
2023/08/16 06:34:06;;;;;;;10.25;5.40;;;;;;;;;;4974416;28;20695;-56
2023/08/16 06:36:33;;;;;;;8.45;4.55;;;;;;;;;;4974381;28;20207;-56
2023/08/16 06:39:00;;;;;;;11.30;5.15;;;;;;;;;;4974231;28;20218;-56
2023/08/16 06:41:28;;;;;;;12.50;4.40;;;;;;;;;;4974943;28;20213;-55
2023/08/16 06:43:57;;;;;;;12.18;4.82;;;;;;;;;;4973360;28;20211;-55
2023/08/16 06:46:24;;;;;;;13.23;4.60;;;;;;;;;;4981842;28;20202;-51
2023/08/16 06:48:51;;;;;;;6.32;4.13;;;;;;;;;;4994007;28;20663;-55
2023/08/16 06:51:18;;;;;;;6.32;3.97;;;;;;;;;;4993968;28;20205;-52
2023/08/16 06:53:46;;;;;;;7.03;3.75;;;;;;;;;;4994500;28;20308;-54
2023/08/16 06:56:13;;;;;;;9.27;4.18;;;;;;;;;;4994172;28;20217;-58
2023/08/16 06:58:41;;;;;;;6.97;4.38;;;;;;;;;;4993040;28;20202;-51
2023/08/16 07:01:09;;;;;;;8.90;4.20;;;;;;;;;;4994366;28;20205;-54
2023/08/16 07:03:37;;;;;;;9.80;4.30;;;;;;;;;;4987529;28;20330;-52
2023/08/16 07:06:04;;;;;;;9.73;3.90;;;;;;;;;;4973990;28;20605;-52
2023/08/16 07:08:31;;;;;;;7.85;4.05;;;;;;;;;;4974160;28;20211;-54
2023/08/16 07:10:58;;;;;;;8.40;4.10;;;;;;;;;;4973890;28;20270;-52
2023/08/16 07:13:25;;;;;;;9.15;4.65;;;;;;;;;;4974039;28;20194;-52
2023/08/16 07:15:52;;;;;;;11.85;4.47;;;;;;;;;;4974620;28;20222;-54
2023/08/16 07:18:19;;;;;;;13.32;4.40;;;;;;;;;;4974507;28;20289;-55
2023/08/16 07:20:47;;;;;;;9.30;4.07;;;;;;;;;;4974275;28;20211;-52
2023/08/16 07:23:14;;;;;;;10.18;4.15;;;;;;;;;;4973912;28;20213;-51
2023/08/16 07:25:41;;;;;;;13.70;4.65;;;;;;;;;;4973101;28;20262;-56
2023/08/16 07:28:08;;;;;;;13.27;4.55;;;;;;;;;;4974354;28;20199;-56
2023/08/16 07:30:38;;;;;;;14.38;4.97;;;;;;;;;;4973866;28;20211;-59
2023/08/16 07:33:05;;;;;;;18.65;4.47;;;;;;;;;;4973972;28;20215;-50
2023/08/16 07:35:33;;;;;;;13.95;4.55;;;;;;;;;;4974051;28;20267;-58
2023/08/16 07:38:02;;;;;;;18.25;4.68;;;;;;;;;;4974158;28;20206;-54
2023/08/16 07:40:29;;;;;;;17.02;5.00;;;;;;;;;;4973337;28;20665;-55
2023/08/16 07:42:56;;;;;;;19.05;4.63;;;;;;;;;;4973911;28;20207;-53
2023/08/16 07:45:23;;;;;;;9.90;4.05;;;;;;;;;;4973786;28;20206;-58
2023/08/16 07:47:50;;;;;;;7.00;3.63;;;;;;;;;;4974173;28;20265;-54
2023/08/16 07:50:18;;;;;;;12.05;4.32;;;;;;;;;;4952820;28;20583;-56
2023/08/16 07:52:45;;;;;;;29.20;4.95;;;;;;;;;;4966523;28;20249;-59
2023/08/16 07:55:13;;;;;;;17.05;4.38;;;;;;;;;;4976067;28;20234;-57
2023/08/16 07:57:40;;;;;;;17.98;4.28;;;;;;;;;;4976523;28;20229;-57
2023/08/16 08:00:11;;;;;;;18.30;4.32;;;;;;;;;;4976810;28;20239;-53
2023/08/16 08:02:41;;;;;;;11.20;3.97;;;;;;;;;;4976393;28;20647;-54
2023/08/16 08:05:26;;;;;;;8.75;3.90;;;;;;;;;;4976270;28;20234;-58
2023/08/16 08:07:53;;;;;;;10.52;3.75;;;;;;;;;;4976458;28;20227;-57
2023/08/16 08:10:21;;;;;;;17.33;3.92;;;;;;;;;;4975974;28;20225;-59
2023/08/16 08:12:48;;;;;;;7.45;3.05;;;;;;;;;;4986380;28;20238;-54
2023/08/16 08:15:15;;;;;;;9.55;3.75;;;;;;;;;;4996047;28;20253;-55
2023/08/16 08:17:42;;;;;;;8.23;3.63;;;;;;;;;;4995729;28;20230;-57
2023/08/16 08:20:14;;;;;;;7.95;3.65;;;;;;;;;;4995763;28;20234;-56
2023/08/16 08:22:41;;;;;;;5.93;3.28;;;;;;;;;;4982894;28;20223;-54
2023/08/16 08:25:08;;;;;;;8.68;3.58;;;;;;;;;;4976426;28;20281;-58
2023/08/16 08:27:36;;;;;;;7.70;3.83;;;;;;;;;;4976739;28;20281;-57
2023/08/16 08:30:04;;;;;;;7.18;3.40;;;;;;;;;;4975607;28;20223;-57
2023/08/16 08:32:31;;;;;;;6.82;3.63;;;;;;;;;;4976352;28;20223;-57
2023/08/16 08:34:58;;;;;;;9.70;3.47;;;;;;;;;;4975591;28;20727;-55
2023/08/16 08:37:25;;;;;;;6.30;3.45;;;;;;;;;;4976392;28;20257;-51
2023/08/16 08:39:53;;;;;;;12.15;3.33;;;;;;;;;;4976463;28;20226;-58
2023/08/16 08:42:20;;;;;;;7.43;3.38;;;;;;;;;;4976189;28;20225;-54
2023/08/16 08:44:49;;;;;;;14.98;3.30;;;;;;;;;;4974695;28;20234;-55
2023/08/16 08:47:17;;;;;;;8.20;3.15;;;;;;;;;;4975889;28;20242;-58
2023/08/16 08:49:44;;;;;;;6.97;3.30;;;;;;;;;;4972714;28;20241;-59
2023/08/16 08:52:13;;;;;;;11.00;3.78;;;;;;;;;;4970962;28;20246;-57
2023/08/16 08:54:40;;;;;;;7.93;3.58;;;;;;;;;;4983505;28;20733;-60
2023/08/16 08:57:09;;;;;;;21.00;3.90;;;;;;;;;;4994937;28;20249;-59
2023/08/16 08:59:38;;;;;;;11.10;3.63;;;;;;;;;;4994990;28;20226;-58
2023/08/16 09:02:06;;;;;;;10.30;3.55;;;;;;;;;;4993877;28;20695;-60
2023/08/16 09:04:34;;;;;;;8.95;3.67;;;;;;;;;;4985215;28;20230;-60
2023/08/16 09:07:04;;;;;;;10.25;3.83;;;;;;;;;;4973560;28;20222;-60
2023/08/16 09:09:32;;;;;;;9.95;4.13;;;;;;;;;;4975357;28;20219;-59
2023/08/16 09:11:59;;;;;;;14.88;3.97;;;;;;;;;;4974407;28;20273;-59
2023/08/16 09:14:26;;;;;;;9.98;3.95;;;;;;;;;;4974800;28;20655;-59
2023/08/16 09:16:53;;;;;;;7.28;3.38;;;;;;;;;;4974493;28;20241;-60
2023/08/16 09:19:21;;;;;;;11.02;3.60;;;;;;;;;;4959654;28;20226;-60
2023/08/16 09:21:50;;;;;;;5.70;3.40;;;;;;;;;;4955125;28;20234;-59
2023/08/16 09:24:23;;;;;;;13.32;3.70;;;;;;;;;;4955918;28;20231;-60
2023/08/16 09:26:52;;;;;;;8.65;3.40;;;;;;;;;;4954596;28;20708;-59
2023/08/16 09:29:19;;;;;;;11.95;3.38;;;;;;;;;;4954271;28;20223;-59
2023/08/16 09:31:46;;;;;;;7.45;3.60;;;;;;;;;;4955570;28;20219;-60
2023/08/16 09:34:14;;;;;;;13.52;3.67;;;;;;;;;;4960217;28;20250;-59
2023/08/16 09:36:45;;;;;;;11.75;3.53;;;;;;;;;;4974719;28;20327;-60
2023/08/16 09:39:12;;;;;;;9.02;3.15;;;;;;;;;;4974517;28;20231;-60
2023/08/16 09:41:51;;;;;;;7.22;2.75;;;;;;;;;;4988156;28;20290;-58
2023/08/16 09:44:19;;;;;;;11.00;3.28;;;;;;;;;;4974501;28;20230;-60
2023/08/16 09:46:46;;;;;;;9.55;3.15;;;;;;;;;;4974763;28;20223;-59
2023/08/16 09:49:16;;;;;;;6.47;3.15;;;;;;;;;;4974256;28;20230;-61
2023/08/16 09:51:45;;;;;;;7.85;2.92;;;;;;;;;;4973217;28;20232;-60
2023/08/16 09:54:17;;;;;;;14.80;3.47;;;;;;;;;;4974259;28;20242;-60
2023/08/16 09:56:45;;;;;;;8.73;3.13;;;;;;;;;;4974894;28;20230;-59
2023/08/16 09:59:16;;;;;;;8.30;3.40;;;;;;;;;;4988004;28;20737;-60
2023/08/16 10:01:46;;;;;;;8.27;3.42;;;;;;;;;;4992148;28;20226;-60
2023/08/16 10:04:17;;;;;;;8.07;2.90;;;;;;;;;;4992979;28;20226;-60
2023/08/16 10:06:47;;;;;;;7.32;3.10;;;;;;;;;;4982688;28;20671;-60
2023/08/16 10:09:17;;;;;;;6.45;2.55;;;;;;;;;;4973627;28;20558;-60
2023/08/16 10:11:45;;;;;;;3.40;3.10;;;;;;;;;;4973245;28;20235;-60
2023/08/16 10:14:12;;;;;;;7.72;3.25;;;;;;;;;;4974780;28;20570;-60
2023/08/16 10:16:40;;;;;;;5.25;2.97;;;;;;;;;;4974892;28;20273;-60
2023/08/16 10:19:12;;;;;;;7.65;2.88;;;;;;;;;;4974559;28;20269;-60
2023/08/16 10:21:43;;;;;;;9.63;3.13;;;;;;;;;;4974579;28;20190;-60
2023/08/16 10:24:13;;;;;;;5.63;2.80;;;;;;;;;;4974711;28;20597;-60
2023/08/16 10:26:46;;;;;;;12.68;3.00;;;;;;;;;;4974920;28;20199;-60
2023/08/16 10:29:14;;;;;;;6.25;2.85;;;;;;;;;;4974127;28;20242;-60
2023/08/16 10:31:45;;;;;;;7.47;3.00;;;;;;;;;;4973437;28;20199;-60
2023/08/16 10:34:14;;;;;;;4.57;2.92;;;;;;;;;;4972983;28;20742;-61
2023/08/16 10:36:41;;;;;;;12.35;3.22;;;;;;;;;;4973567;28;20664;-60
2023/08/16 10:39:23;;;;;;;7.18;3.17;;;;;;;;;;4974660;28;20648;-60
2023/08/16 10:41:51;;;;;;;6.35;2.97;;;;;;;;;;4974101;28;20550;-59
2023/08/16 10:44:23;;;;;;;9.90;3.10;;;;;;;;;;4974452;28;20269;-59
2023/08/16 10:46:50;;;;;;;7.65;2.72;;;;;;;;;;4973820;28;20195;-59
2023/08/16 10:49:18;;;;;;;4.05;2.85;;;;;;;;;;4974034;28;20202;-59
2023/08/16 10:51:46;;;;;;;8.40;2.60;;;;;;;;;;4969332;28;20611;-59
2023/08/16 10:54:15;;;;;;;4.68;2.83;;;;;;;;;;4972890;28;20367;-60
2023/08/16 10:56:49;;;;;;;4.50;2.58;;;;;;;;;;4981425;28;20219;-59
2023/08/16 10:59:17;;;;;;;4.88;2.80;;;;;;;;;;4972916;28;20707;-59
2023/08/16 11:01:53;;;;;;;11.73;2.50;;;;;;;;;;4972604;28;20226;-59
2023/08/16 11:04:21;;;;;;;7.05;3.08;;;;;;;;;;4961284;28;20219;-59
2023/08/16 11:06:49;;;;;;;16.35;3.00;;;;;;;;;;4972466;28;20734;-59
2023/08/16 11:09:29;;;;;;;7.13;2.97;;;;;;;;;;4973547;28;20237;-59
2023/08/16 11:12:00;;;;;;;6.55;2.78;;;;;;;;;;4973343;28;20321;-60
2023/08/16 11:14:27;;;;;;;8.38;2.67;;;;;;;;;;4955253;28;20223;-60
2023/08/16 11:16:55;;;;;;;9.43;2.90;;;;;;;;;;4973427;28;20265;-60
2023/08/16 11:19:22;;;;;;;5.90;3.00;;;;;;;;;;4973264;28;20342;-60
2023/08/16 11:21:51;;;;;;;5.72;2.72;;;;;;;;;;4972922;28;20227;-59
2023/08/16 11:24:20;;;;;;;5.13;3.13;;;;;;;;;;4973857;28;20273;-60
2023/08/16 11:26:47;;;;;;;5.10;2.50;;;;;;;;;;4975928;28;20235;-57
2023/08/16 11:29:17;;;;;;;3.97;2.50;;;;;;;;;;4977059;28;20231;-59
2023/08/16 11:31:44;;;;;;;5.90;2.70;;;;;;;;;;4976791;28;20227;-59
2023/08/16 11:34:13;;;;;;;5.38;2.80;;;;;;;;;;4977224;28;20269;-59
2023/08/16 11:36:40;;;;;;;6.38;2.55;;;;;;;;;;4974862;28;20579;-58
2023/08/16 11:39:10;;;;;;;8.30;3.10;;;;;;;;;;4957429;28;20223;-59
2023/08/16 11:41:37;;;;;;;6.50;2.65;;;;;;;;;;4957691;28;20223;-60
2023/08/16 11:44:05;;;;;;;6.25;2.97;;;;;;;;;;4969714;28;20696;-59
2023/08/16 11:46:43;;;;;;;10.68;3.10;;;;;;;;;;4976786;28;20589;-59
2023/08/16 11:49:12;;;;;;;5.53;2.60;;;;;;;;;;4976502;28;20230;-59
2023/08/16 11:51:41;;;;;;;9.68;3.17;;;;;;;;;;4976052;28;20783;-59
2023/08/16 11:54:20;;;;;;;8.38;3.25;;;;;;;;;;4976530;28;20238;-59
2023/08/16 11:56:47;;;;;;;7.13;3.17;;;;;;;;;;4976424;28;20333;-59
2023/08/16 11:59:25;;;;;;;5.13;2.97;;;;;;;;;;4976799;28;20249;-59
2023/08/16 12:01:54;;;;;;;5.90;2.78;;;;;;;;;;4974266;28;20234;-59
2023/08/16 12:04:23;;;;;;;4.45;2.75;;;;;;;;;;4976640;28;20227;-59
2023/08/16 12:06:50;;;;;;;7.88;3.10;;;;;;;;;;4975720;28;20279;-60
2023/08/16 12:09:18;;;;;;;8.32;2.70;;;;;;;;;;4976540;28;20218;-59
2023/08/16 12:11:50;;;;;;;8.25;2.90;;;;;;;;;;4975372;28;20243;-59
2023/08/16 12:14:17;;;;;;;5.63;2.92;;;;;;;;;;4957641;28;20188;-59
2023/08/16 12:16:44;;;;;;;6.13;2.65;;;;;;;;;;4957350;28;20290;-59
2023/08/16 12:19:19;;;;;;;6.68;3.00;;;;;;;;;;4957139;28;20211;-59
2023/08/16 12:21:47;;;;;;;4.95;2.90;;;;;;;;;;4957206;28;20279;-59
2023/08/16 12:24:14;;;;;;;3.97;2.60;;;;;;;;;;4957394;28;20203;-59
2023/08/16 12:26:41;;;;;;;6.30;2.60;;;;;;;;;;4957570;28;20297;-57
2023/08/16 12:29:09;;;;;;;4.10;2.70;;;;;;;;;;4975808;28;20241;-58
2023/08/16 12:31:37;;;;;;;14.25;3.45;;;;;;;;;;4975215;28;20786;-60
2023/08/16 12:34:06;;;;;;;4.47;2.97;;;;;;;;;;4975586;28;20587;-59
2023/08/16 12:36:33;;;;;;;10.25;3.15;;;;;;;;;;4968718;28;20235;-59
2023/08/16 12:39:01;;;;;;;6.43;3.28;;;;;;;;;;4967954;28;20727;-59
2023/08/16 12:41:28;;;;;;;4.68;3.05;;;;;;;;;;4965876;28;20214;-58
2023/08/16 12:43:56;;;;;;;11.88;3.35;;;;;;;;;;4956977;28;20240;-60
2023/08/16 12:46:23;;;;;;;8.05;3.42;;;;;;;;;;4956519;28;20250;-60
2023/08/16 12:48:50;;;;;;;6.18;3.33;;;;;;;;;;4956126;28;20227;-58
2023/08/16 12:51:17;;;;;;;6.60;2.72;;;;;;;;;;4969554;28;20263;-59
2023/08/16 12:53:45;;;;;;;5.22;2.95;;;;;;;;;;4972425;28;20270;-57
2023/08/16 12:56:13;;;;;;;4.05;2.90;;;;;;;;;;4974878;28;20240;-57
2023/08/16 12:58:40;;;;;;;6.15;3.40;;;;;;;;;;4975569;28;20241;-53
2023/08/16 13:01:11;;;;;;;8.30;2.78;;;;;;;;;;4975630;28;20234;-57
2023/08/16 13:03:45;;;;;;;10.88;2.83;;;;;;;;;;4975723;28;20254;-55
2023/08/16 13:06:16;;;;;;;4.85;3.05;;;;;;;;;;4975860;28;20223;-56
2023/08/16 13:08:57;;;;;;;4.68;3.13;;;;;;;;;;4975282;28;20223;-56
2023/08/16 13:11:28;;;;;;;6.45;3.15;;;;;;;;;;4974981;28;20262;-54
2023/08/16 13:14:01;;;;;;;6.53;3.22;;;;;;;;;;4975107;28;20234;-52
2023/08/16 13:16:29;;;;;;;5.28;3.05;;;;;;;;;;4975069;28;20321;-56
2023/08/16 13:18:58;;;;;;;4.15;3.10;;;;;;;;;;4974797;28;20234;-58
2023/08/16 13:21:33;;;;;;;5.07;3.25;;;;;;;;;;4974572;28;20222;-55
2023/08/16 13:24:11;;;;;;;8.07;3.33;;;;;;;;;;4974970;28;20222;-57
2023/08/16 13:26:58;;;;;;;7.47;3.13;;;;;;;;;;4973879;28;20265;-53
2023/08/16 13:29:29;;;;;;;9.07;3.20;;;;;;;;;;4975304;28;20231;-52
2023/08/16 13:32:18;;;;;;;7.50;3.60;;;;;;;;;;4975609;28;20222;-54
2023/08/16 13:34:48;;;;;;;3.92;3.05;;;;;;;;;;4974501;28;20231;-56
2023/08/16 13:37:18;;;;;;;7.60;3.15;;;;;;;;;;4968073;28;20219;-57
2023/08/16 13:39:48;;;;;;;6.45;3.40;;;;;;;;;;4966552;28;20223;-53
2023/08/16 13:42:28;;;;;;;6.70;3.17;;;;;;;;;;4969057;28;20782;-56
2023/08/16 13:44:59;;;;;;;5.88;3.60;;;;;;;;;;4974748;28;20587;-57
2023/08/16 13:47:29;;;;;;;9.23;4.00;;;;;;;;;;4968183;28;20727;-59
2023/08/16 13:49:56;;;;;;;8.18;3.80;;;;;;;;;;4969493;28;20227;-57
2023/08/16 13:52:23;;;;;;;6.82;3.10;;;;;;;;;;4966513;28;20751;-57
2023/08/16 13:54:51;;;;;;;7.10;3.55;;;;;;;;;;4964611;28;20274;-59
2023/08/16 13:57:18;;;;;;;7.85;3.08;;;;;;;;;;4966508;28;20680;-56
2023/08/16 13:59:46;;;;;;;7.78;3.50;;;;;;;;;;4969137;28;20223;-59
2023/08/16 14:02:13;;;;;;;6.47;3.33;;;;;;;;;;4974287;28;20281;-59
2023/08/16 14:04:43;;;;;;;6.65;3.35;;;;;;;;;;4974054;28;20575;-59
2023/08/16 14:07:10;;;;;;;7.80;4.00;;;;;;;;;;4967598;28;20227;-56
2023/08/16 14:09:38;;;;;;;11.27;3.40;;;;;;;;;;4966336;28;20230;-54
2023/08/16 14:12:05;;;;;;;10.85;3.50;;;;;;;;;;4968619;28;20300;-58
2023/08/16 14:14:32;;;;;;;6.50;3.33;;;;;;;;;;4955742;28;20708;-59
2023/08/16 14:16:59;;;;;;;7.32;3.63;;;;;;;;;;4972394;28;20238;-57
2023/08/16 14:19:27;;;;;;;8.60;3.63;;;;;;;;;;4964303;28;20227;-55
2023/08/16 14:21:54;;;;;;;5.22;3.25;;;;;;;;;;4953921;28;20230;-52
2023/08/16 14:24:25;;;;;;;5.45;3.40;;;;;;;;;;4970432;28;20695;-45
2023/08/16 14:26:52;;;;;;;7.57;3.25;;;;;;;;;;4972422;28;20692;-52
2023/08/16 14:29:20;;;;;;;7.00;3.58;;;;;;;;;;4973788;28;20297;-46
2023/08/16 14:31:47;;;;;;;8.63;3.60;;;;;;;;;;4975344;28;20240;-46
2023/08/16 14:34:15;;;;;;;8.75;3.75;;;;;;;;;;4978114;28;20218;-46
2023/08/16 14:36:42;;;;;;;7.07;3.30;;;;;;;;;;4962354;28;20270;-45
2023/08/16 14:39:10;;;;;;;5.95;3.63;;;;;;;;;;4968782;28;20214;-45
2023/08/16 14:41:37;;;;;;;8.13;3.53;;;;;;;;;;4971650;28;20235;-47
2023/08/16 14:44:04;;;;;;;5.50;3.72;;;;;;;;;;4955345;28;20203;-46
2023/08/16 14:46:31;;;;;;;12.07;3.70;;;;;;;;;;4955650;28;20235;-47